createdAt,value
2023-02-01T00:00:10.837Z,103
2023-02-01T00:01:10.278Z,103
2023-02-01T00:02:11.128Z,103
2023-02-01T00:03:10.237Z,103
2023-02-01T00:04:10.864Z,103
2023-02-01T00:05:10.111Z,103
2023-02-01T00:06:10.846Z,103
2023-02-01T00:07:11.448Z,102
2023-02-01T00:08:09.917Z,102
2023-02-01T00:09:10.230Z,102
2023-02-01T00:10:10.058Z,102
2023-02-01T00:11:10.542Z,102
2023-02-01T00:12:10.360Z,102
2023-02-01T00:13:10.600Z,102
2023-02-01T00:14:10.022Z,102
2023-02-01T00:15:10.666Z,102
2023-02-01T00:16:10.927Z,102
2023-02-01T00:17:09.891Z,102
2023-02-01T00:18:10.524Z,102
2023-02-01T00:19:09.920Z,102
2023-02-01T00:20:10.463Z,102
2023-02-01T00:21:10.154Z,102
2023-02-01T00:22:10.590Z,102
2023-02-01T00:23:09.886Z,102
2023-02-01T00:24:10.445Z,102
2023-02-01T00:25:10.113Z,102
2023-02-01T00:26:10.589Z,102
2023-02-01T00:27:10.401Z,102
2023-02-01T00:28:10.597Z,102
2023-02-01T00:29:10.091Z,102
2023-02-01T00:30:10.739Z,102
2023-02-01T00:31:10.652Z,102
2023-02-01T00:32:11.040Z,102
2023-02-01T00:33:10.346Z,102
2023-02-01T00:34:09.902Z,102
2023-02-01T00:35:10.447Z,102
2023-02-01T00:36:10.173Z,102
2023-02-01T00:37:10.813Z,102
2023-02-01T00:38:09.865Z,102
2023-02-01T00:39:10.686Z,102
2023-02-01T00:40:10.283Z,102
2023-02-01T00:41:10.665Z,102
2023-02-01T00:42:10.102Z,102
2023-02-01T00:43:10.850Z,102
2023-02-01T00:44:10.167Z,102
2023-02-01T00:45:10.023Z,102
2023-02-01T00:46:10.621Z,102
2023-02-01T00:47:10.083Z,102
2023-02-01T00:48:10.630Z,102
2023-02-01T00:49:10.348Z,102
2023-02-01T00:50:10.003Z,102
2023-02-01T00:51:10.536Z,102
2023-02-01T00:52:10.106Z,102
2023-02-01T00:53:10.584Z,102
2023-02-01T00:54:10.133Z,102
2023-02-01T00:55:10.821Z,102
2023-02-01T00:56:10.180Z,102
2023-02-01T00:57:10.827Z,102
2023-02-01T00:58:10.241Z,102
2023-02-01T00:59:10.628Z,102
2023-02-01T01:00:10.523Z,102
2023-02-01T01:01:10.546Z,102
2023-02-01T01:02:11.022Z,102
2023-02-01T01:03:10.312Z,102
2023-02-01T01:04:10.081Z,102
2023-02-01T01:05:10.264Z,102
2023-02-01T01:06:10.079Z,102
2023-02-01T01:07:10.816Z,103
2023-02-01T01:08:10.298Z,103
2023-02-01T01:09:10.818Z,103
2023-02-01T01:10:10.425Z,103
2023-02-01T01:11:10.704Z,103
2023-02-01T01:12:10.405Z,103
2023-02-01T01:13:10.791Z,103
2023-02-01T01:14:10.176Z,103
2023-02-01T01:15:09.869Z,103
2023-02-01T01:16:10.415Z,103
2023-02-01T01:17:10.812Z,103
2023-02-01T01:18:10.306Z,103
2023-02-01T01:19:10.072Z,103
2023-02-01T01:20:10.518Z,103
2023-02-01T01:21:09.984Z,103
2023-02-01T01:22:10.507Z,103
2023-02-01T01:23:09.903Z,103
2023-02-01T01:24:10.673Z,103
2023-02-01T01:25:10.212Z,103
2023-02-01T01:26:12.134Z,103
2023-02-01T01:27:10.297Z,103
2023-02-01T01:28:09.906Z,103
2023-02-01T01:29:10.660Z,103
2023-02-01T01:30:10.250Z,103
2023-02-01T01:31:11.462Z,103
2023-02-01T01:32:10.588Z,103
2023-02-01T01:33:09.883Z,103
2023-02-01T01:34:10.500Z,103
2023-02-01T01:35:10.100Z,103
2023-02-01T01:36:10.573Z,103
2023-02-01T01:37:09.922Z,103
2023-02-01T01:38:10.662Z,103
2023-02-01T01:39:10.257Z,103
2023-02-01T01:40:10.825Z,103
2023-02-01T01:41:10.295Z,103
2023-02-01T01:42:10.925Z,103
2023-02-01T01:43:10.308Z,103
2023-02-01T01:44:09.878Z,103
2023-02-01T01:45:10.507Z,103
2023-02-01T01:46:10.135Z,103
2023-02-01T01:47:10.970Z,103
2023-02-01T01:48:10.407Z,103
2023-02-01T01:49:09.773Z,103
2023-02-01T01:50:10.450Z,103
2023-02-01T01:51:10.028Z,103
2023-02-01T01:52:10.770Z,103
2023-02-01T01:53:10.115Z,103
2023-02-01T01:54:10.557Z,103
2023-02-01T01:55:10.152Z,103
2023-02-01T01:56:09.937Z,103
2023-02-01T01:57:10.397Z,103
2023-02-01T01:58:09.882Z,103
2023-02-01T01:59:10.351Z,103
2023-02-01T02:00:09.809Z,103
2023-02-01T02:01:10.896Z,103
2023-02-01T02:02:10.673Z,103
2023-02-01T02:03:10.704Z,103
2023-02-01T02:04:10.248Z,103
2023-02-01T02:05:10.799Z,103
2023-02-01T02:06:10.835Z,103
2023-02-01T02:07:10.353Z,103
2023-02-01T02:08:10.651Z,103
2023-02-01T02:09:13.054Z,103
2023-02-01T02:10:10.742Z,103
2023-02-01T02:11:10.286Z,103
2023-02-01T02:12:09.816Z,103
2023-02-01T02:13:10.431Z,103
2023-02-01T02:14:10.804Z,103
2023-02-01T02:15:10.190Z,103
2023-02-01T02:16:10.274Z,103
2023-02-01T02:17:10.653Z,103
2023-02-01T02:18:10.158Z,103
2023-02-01T02:19:10.105Z,103
2023-02-01T02:20:10.500Z,103
2023-02-01T02:21:10.096Z,103
2023-02-01T02:22:10.482Z,103
2023-02-01T02:23:10.322Z,103
2023-02-01T02:24:10.856Z,103
2023-02-01T02:25:10.195Z,103
2023-02-01T02:26:09.918Z,103
2023-02-01T02:27:10.409Z,103
2023-02-01T02:28:10.006Z,103
2023-02-01T02:29:10.425Z,103
2023-02-01T02:30:10.271Z,103
2023-02-01T02:31:10.247Z,103
2023-02-01T02:32:10.471Z,103
2023-02-01T02:33:10.078Z,103
2023-02-01T02:34:10.760Z,103
2023-02-01T02:35:10.312Z,103
2023-02-01T02:36:10.646Z,103
2023-02-01T02:37:10.397Z,103
2023-02-01T02:38:10.840Z,103
2023-02-01T02:39:10.435Z,103
2023-02-01T02:40:09.920Z,103
2023-02-01T02:41:10.455Z,103
2023-02-01T02:42:10.116Z,103
2023-02-01T02:43:10.561Z,103
2023-02-01T02:44:10.451Z,103
2023-02-01T02:45:10.155Z,103
2023-02-01T02:46:10.509Z,103
2023-02-01T02:47:09.730Z,103
2023-02-01T02:48:10.399Z,103
2023-02-01T02:49:09.824Z,103
2023-02-01T02:50:10.406Z,103
2023-02-01T02:51:10.033Z,103
2023-02-01T02:52:10.559Z,103
2023-02-01T02:53:09.753Z,103
2023-02-01T02:54:10.459Z,103
2023-02-01T02:55:10.240Z,103
2023-02-01T02:56:09.906Z,103
2023-02-01T02:57:10.427Z,103
2023-02-01T02:58:09.888Z,103
2023-02-01T02:59:10.365Z,103
2023-02-01T03:00:09.873Z,103
2023-02-01T03:01:10.211Z,103
2023-02-01T03:02:10.610Z,103
2023-02-01T03:03:10.254Z,103
2023-02-01T03:04:10.341Z,103
2023-02-01T03:05:09.903Z,103
2023-02-01T03:06:10.637Z,103
2023-02-01T03:07:10.243Z,103
2023-02-01T03:08:11.070Z,103
2023-02-01T03:09:10.204Z,103
2023-02-01T03:10:10.928Z,103
2023-02-01T03:11:10.316Z,103
2023-02-01T03:12:09.826Z,103
2023-02-01T03:13:10.414Z,103
2023-02-01T03:14:10.004Z,103
2023-02-01T03:15:10.532Z,103
2023-02-01T03:16:10.182Z,103
2023-02-01T03:17:10.419Z,103
2023-02-01T03:18:09.939Z,103
2023-02-01T03:19:10.421Z,103
2023-02-01T03:20:09.742Z,103
2023-02-01T03:21:10.322Z,103
2023-02-01T03:22:09.840Z,103
2023-02-01T03:23:10.483Z,103
2023-02-01T03:24:10.119Z,103
2023-02-01T03:25:10.589Z,103
2023-02-01T03:26:10.065Z,103
2023-02-01T03:27:10.561Z,103
2023-02-01T03:28:10.216Z,103
2023-02-01T03:29:10.741Z,103
2023-02-01T03:30:10.185Z,103
2023-02-01T03:31:10.371Z,103
2023-02-01T03:32:10.014Z,103
2023-02-01T03:33:10.558Z,103
2023-02-01T03:34:09.911Z,103
2023-02-01T03:35:10.452Z,103
2023-02-01T03:36:10.115Z,103
2023-02-01T03:37:10.736Z,103
2023-02-01T03:38:10.108Z,103
2023-02-01T03:39:10.771Z,103
2023-02-01T03:40:10.189Z,103
2023-02-01T03:41:10.860Z,103
2023-02-01T03:42:10.051Z,103
2023-02-01T03:43:10.883Z,103
2023-02-01T03:44:10.185Z,103
2023-02-01T03:45:09.785Z,103
2023-02-01T03:46:10.674Z,103
2023-02-01T03:47:10.019Z,103
2023-02-01T03:48:10.755Z,103
2023-02-01T03:49:10.270Z,103
2023-02-01T03:50:09.923Z,103
2023-02-01T03:51:10.728Z,103
2023-02-01T03:52:10.348Z,103
2023-02-01T03:53:10.831Z,103
2023-02-01T03:54:10.243Z,103
2023-02-01T03:55:10.840Z,103
2023-02-01T03:56:10.453Z,103
2023-02-01T03:57:09.869Z,103
2023-02-01T03:58:10.455Z,103
2023-02-01T03:59:09.880Z,103
2023-02-01T04:00:10.547Z,103
2023-02-01T04:01:10.350Z,103
2023-02-01T04:02:10.903Z,103
2023-02-01T04:03:10.006Z,103
2023-02-01T04:04:10.902Z,103
2023-02-01T04:05:10.220Z,103
2023-02-01T04:06:10.574Z,103
2023-02-01T04:07:10.156Z,103
2023-02-01T04:08:10.766Z,103
2023-02-01T04:09:10.476Z,103
2023-02-01T04:10:09.944Z,103
2023-02-01T04:11:10.403Z,103
2023-02-01T04:12:10.081Z,103
2023-02-01T04:13:10.621Z,103
2023-02-01T04:14:09.970Z,103
2023-02-01T04:15:10.636Z,103
2023-02-01T04:16:10.040Z,103
2023-02-01T04:17:10.773Z,103
2023-02-01T04:18:10.385Z,103
2023-02-01T04:19:10.088Z,103
2023-02-01T04:20:10.596Z,103
2023-02-01T04:21:10.093Z,103
2023-02-01T04:22:10.518Z,103
2023-02-01T04:23:10.288Z,103
2023-02-01T04:24:10.697Z,103
2023-02-01T04:25:10.239Z,103
2023-02-01T04:26:09.829Z,103
2023-02-01T04:27:10.447Z,103
2023-02-01T04:28:10.177Z,103
2023-02-01T04:29:10.591Z,103
2023-02-01T04:30:10.274Z,103
2023-02-01T04:31:11.311Z,103
2023-02-01T04:32:10.317Z,103
2023-02-01T04:33:09.776Z,103
2023-02-01T04:34:10.330Z,103
2023-02-01T04:35:09.956Z,103
2023-02-01T04:36:10.706Z,103
2023-02-01T04:37:10.078Z,103
2023-02-01T04:38:10.721Z,103
2023-02-01T04:39:10.173Z,103
2023-02-01T04:40:10.715Z,103
2023-02-01T04:41:10.139Z,103
2023-02-01T04:42:09.878Z,103
2023-02-01T04:43:10.350Z,103
2023-02-01T04:44:10.197Z,103
2023-02-01T04:45:10.705Z,103
2023-02-01T04:46:10.752Z,103
2023-02-01T04:47:10.233Z,103
2023-02-01T04:48:10.764Z,103
2023-02-01T04:49:10.315Z,103
2023-02-01T04:50:10.505Z,103
2023-02-01T04:51:10.100Z,103
2023-02-01T04:52:10.710Z,103
2023-02-01T04:53:10.335Z,103
2023-02-01T04:54:09.879Z,103
2023-02-01T04:55:10.454Z,103
2023-02-01T04:56:09.871Z,103
2023-02-01T04:57:10.531Z,103
2023-02-01T04:58:10.097Z,103
2023-02-01T04:59:10.552Z,103
2023-02-01T05:00:10.099Z,103
2023-02-01T05:01:10.718Z,103
2023-02-01T05:02:09.911Z,103
2023-02-01T05:03:10.649Z,103
2023-02-01T05:04:10.216Z,103
2023-02-01T05:05:10.568Z,103
2023-02-01T05:06:10.336Z,103
2023-02-01T05:07:10.797Z,102
2023-02-01T05:08:10.301Z,102
2023-02-01T05:09:09.876Z,102
2023-02-01T05:10:10.289Z,102
2023-02-01T05:11:10.116Z,102
2023-02-01T05:12:10.686Z,102
2023-02-01T05:13:10.220Z,102
2023-02-01T05:14:11.159Z,102
2023-02-01T05:15:10.372Z,102
2023-02-01T05:16:10.819Z,102
2023-02-01T05:17:10.320Z,102
2023-02-01T05:18:10.606Z,102
2023-02-01T05:19:10.400Z,102
2023-02-01T05:20:10.742Z,102
2023-02-01T05:21:10.409Z,102
2023-02-01T05:22:10.766Z,102
2023-02-01T05:23:10.334Z,102
2023-02-01T05:24:09.960Z,102
2023-02-01T05:25:12.745Z,102
2023-02-01T05:26:10.113Z,102
2023-02-01T05:27:10.590Z,102
2023-02-01T05:28:10.037Z,102
2023-02-01T05:29:10.571Z,102
2023-02-01T05:30:10.102Z,102
2023-02-01T05:31:10.387Z,102
2023-02-01T05:32:29.761Z,102
2023-02-01T05:33:10.096Z,102
2023-02-01T05:34:10.580Z,102
2023-02-01T05:35:10.196Z,102
2023-02-01T05:36:13.003Z,102
2023-02-01T05:37:10.204Z,102
2023-02-01T05:38:09.947Z,102
2023-02-01T05:39:10.342Z,102
2023-02-01T05:40:10.053Z,102
2023-02-01T05:41:10.483Z,102
2023-02-01T05:42:09.929Z,102
2023-02-01T05:43:10.634Z,102
2023-02-01T05:44:10.059Z,102
2023-02-01T05:45:10.516Z,102
2023-02-01T05:46:10.422Z,102
2023-02-01T05:47:10.043Z,102
2023-02-01T05:48:10.435Z,102
2023-02-01T05:49:09.977Z,102
2023-02-01T05:50:10.805Z,102
2023-02-01T05:51:10.123Z,102
2023-02-01T05:52:10.695Z,102
2023-02-01T05:53:10.076Z,102
2023-02-01T05:54:10.703Z,102
2023-02-01T05:55:10.314Z,102
2023-02-01T05:56:10.958Z,102
2023-02-01T05:57:10.405Z,102
2023-02-01T05:58:09.811Z,102
2023-02-01T05:59:10.397Z,102
2023-02-01T06:00:09.900Z,102
2023-02-01T06:01:09.862Z,102
2023-02-01T06:02:10.410Z,102
2023-02-01T06:03:10.175Z,102
2023-02-01T06:04:10.777Z,102
2023-02-01T06:05:10.010Z,102
2023-02-01T06:06:10.605Z,102
2023-02-01T06:07:09.977Z,99
2023-02-01T06:08:10.722Z,99
2023-02-01T06:09:10.279Z,99
2023-02-01T06:10:10.041Z,99
2023-02-01T06:11:12.044Z,99
2023-02-01T06:13:10.010Z,99
2023-02-01T06:14:10.646Z,99
2023-02-01T06:15:10.353Z,99
2023-02-01T06:16:10.893Z,99
2023-02-01T06:17:10.477Z,99
2023-02-01T06:18:10.141Z,99
2023-02-01T06:19:10.786Z,99
2023-02-01T06:20:12.071Z,99
2023-02-01T06:21:10.864Z,99
2023-02-01T06:22:10.272Z,99
2023-02-01T06:23:10.009Z,99
2023-02-01T06:24:10.488Z,99
2023-02-01T06:25:09.866Z,99
2023-02-01T06:26:10.498Z,99
2023-02-01T06:27:09.975Z,99
2023-02-01T06:28:10.362Z,99
2023-02-01T06:29:10.095Z,99
2023-02-01T06:30:10.809Z,99
2023-02-01T06:31:10.927Z,99
2023-02-01T06:32:10.051Z,99
2023-02-01T06:33:10.612Z,99
2023-02-01T06:34:10.081Z,99
2023-02-01T06:35:10.610Z,99
2023-02-01T06:36:09.967Z,99
2023-02-01T06:37:10.630Z,99
2023-02-01T06:38:10.205Z,99
2023-02-01T06:39:10.792Z,99
2023-02-01T06:40:10.487Z,99
2023-02-01T06:41:09.804Z,99
2023-02-01T06:42:10.208Z,99
2023-02-01T06:43:09.786Z,99
2023-02-01T06:44:10.466Z,99
2023-02-01T06:45:09.863Z,99
2023-02-01T06:46:09.976Z,99
2023-02-01T06:47:13.439Z,99
2023-02-01T06:48:10.084Z,99
2023-02-01T06:49:10.338Z,99
2023-02-01T06:50:09.938Z,99
2023-02-01T06:51:10.561Z,99
2023-02-01T06:52:10.079Z,99
2023-02-01T06:53:10.716Z,99
2023-02-01T06:54:10.331Z,99
2023-02-01T06:55:09.911Z,99
2023-02-01T06:56:10.474Z,99
2023-02-01T06:57:09.960Z,99
2023-02-01T06:58:10.399Z,99
2023-02-01T06:59:09.936Z,99
2023-02-01T07:00:10.347Z,99
2023-02-01T07:01:10.197Z,99
2023-02-01T07:02:10.584Z,99
2023-02-01T07:03:09.859Z,99
2023-02-01T07:04:10.577Z,99
2023-02-01T07:05:10.038Z,99
2023-02-01T07:06:10.425Z,99
2023-02-01T07:07:10.097Z,102
2023-02-01T07:08:10.814Z,102
2023-02-01T07:09:10.102Z,102
2023-02-01T07:10:10.614Z,102
2023-02-01T07:11:10.252Z,102
2023-02-01T07:12:09.945Z,102
2023-02-01T07:13:10.328Z,102
2023-02-01T07:14:09.762Z,102
2023-02-01T07:15:10.550Z,102
2023-02-01T07:16:10.218Z,102
2023-02-01T07:17:10.408Z,102
2023-02-01T07:18:09.868Z,102
2023-02-01T07:19:10.564Z,102
2023-02-01T07:20:10.222Z,102
2023-02-01T07:21:10.768Z,102
2023-02-01T07:22:10.343Z,102
2023-02-01T07:23:09.894Z,102
2023-02-01T07:24:10.527Z,102
2023-02-01T07:25:12.001Z,102
2023-02-01T07:26:10.761Z,102
2023-02-01T07:27:09.983Z,102
2023-02-01T07:28:10.908Z,102
2023-02-01T07:29:10.283Z,102
2023-02-01T07:30:09.970Z,102
2023-02-01T07:31:10.404Z,102
2023-02-01T07:32:10.834Z,102
2023-02-01T07:33:10.198Z,102
2023-02-01T07:34:10.793Z,102
2023-02-01T07:35:10.178Z,102
2023-02-01T07:36:09.906Z,102
2023-02-01T07:37:10.776Z,102
2023-02-01T07:38:10.441Z,102
2023-02-01T07:39:10.061Z,102
2023-02-01T07:40:10.498Z,102
2023-02-01T07:41:10.072Z,102
2023-02-01T07:42:10.375Z,102
2023-02-01T07:43:10.030Z,102
2023-02-01T07:44:10.475Z,102
2023-02-01T07:45:27.767Z,102
2023-02-01T07:47:10.448Z,102
2023-02-01T07:48:10.109Z,102
2023-02-01T07:49:10.586Z,102
2023-02-01T07:50:10.180Z,102
2023-02-01T07:51:10.763Z,102
2023-02-01T07:52:10.192Z,102
2023-02-01T07:53:10.720Z,102
2023-02-01T07:54:10.195Z,102
2023-02-01T07:55:10.768Z,102
2023-02-01T07:56:10.381Z,102
2023-02-01T07:57:09.922Z,102
2023-02-01T07:58:10.575Z,102
2023-02-01T07:59:10.148Z,102
2023-02-01T08:00:10.852Z,102
2023-02-01T08:01:10.191Z,102
2023-02-01T08:02:10.743Z,102
2023-02-01T08:03:10.120Z,102
2023-02-01T08:04:10.913Z,102
2023-02-01T08:05:10.156Z,102
2023-02-01T08:06:10.982Z,102
2023-02-01T08:07:09.995Z,105
2023-02-01T08:08:10.794Z,105
2023-02-01T08:09:10.159Z,105
2023-02-01T08:10:10.815Z,105
2023-02-01T08:11:10.385Z,105
2023-02-01T08:12:10.011Z,105
2023-02-01T08:13:10.301Z,105
2023-02-01T08:14:10.134Z,105
2023-02-01T08:15:10.537Z,105
2023-02-01T08:16:10.531Z,105
2023-02-01T08:17:09.988Z,105
2023-02-01T08:18:10.498Z,105
2023-02-01T08:19:10.426Z,105
2023-02-01T08:20:10.825Z,105
2023-02-01T08:21:10.151Z,105
2023-02-01T08:22:09.996Z,105
2023-02-01T08:23:10.621Z,105
2023-02-01T08:24:10.320Z,105
2023-02-01T08:25:09.886Z,105
2023-02-01T08:26:10.399Z,105
2023-02-01T08:27:09.930Z,105
2023-02-01T08:28:10.724Z,105
2023-02-01T08:29:09.971Z,105
2023-02-01T08:30:10.684Z,105
2023-02-01T08:31:10.379Z,105
2023-02-01T08:32:11.105Z,105
2023-02-01T08:33:10.231Z,105
2023-02-01T08:34:10.731Z,105
2023-02-01T08:35:10.187Z,105
2023-02-01T08:36:09.911Z,105
2023-02-01T08:37:10.494Z,105
2023-02-01T08:38:10.013Z,105
2023-02-01T08:39:10.627Z,105
2023-02-01T08:40:10.203Z,105
2023-02-01T08:41:10.578Z,105
2023-02-01T08:42:10.034Z,105
2023-02-01T08:43:09.904Z,105
2023-02-01T08:44:10.420Z,105
2023-02-01T08:45:09.925Z,105
2023-02-01T08:46:10.846Z,105
2023-02-01T08:47:09.910Z,105
2023-02-01T08:48:10.557Z,105
2023-02-01T08:49:09.988Z,105
2023-02-01T08:50:10.569Z,105
2023-02-01T08:51:10.014Z,105
2023-02-01T08:52:22.341Z,105
2023-02-01T08:54:10.727Z,105
2023-02-01T08:55:10.401Z,105
2023-02-01T08:56:10.019Z,105
2023-02-01T08:57:10.547Z,105
2023-02-01T08:58:10.251Z,105
2023-02-01T08:59:10.954Z,105
2023-02-01T09:00:10.331Z,105
2023-02-01T09:01:11.112Z,105
2023-02-01T09:02:10.302Z,105
2023-02-01T09:03:10.838Z,105
2023-02-01T09:04:11.004Z,105
2023-02-01T09:05:10.021Z,105
2023-02-01T09:06:10.697Z,105
2023-02-01T09:07:10.240Z,101
2023-02-01T09:08:10.845Z,101
2023-02-01T09:09:10.305Z,101
2023-02-01T09:10:09.940Z,101
2023-02-01T09:11:12.003Z,101
2023-02-01T09:12:09.874Z,101
2023-02-01T09:13:10.535Z,101
2023-02-01T09:14:09.890Z,101
2023-02-01T09:15:10.697Z,101
2023-02-01T09:16:10.671Z,101
2023-02-01T09:17:10.484Z,101
2023-02-01T09:18:10.224Z,101
2023-02-01T09:19:33.659Z,101
2023-02-01T09:20:10.771Z,101
2023-02-01T09:21:10.220Z,101
2023-02-01T09:22:10.776Z,101
2023-02-01T09:23:10.275Z,101
2023-02-01T09:24:09.915Z,101
2023-02-01T09:25:10.799Z,101
2023-02-01T09:26:10.772Z,101
2023-02-01T09:27:10.990Z,101
2023-02-01T09:28:10.200Z,101
2023-02-01T09:29:10.639Z,101
2023-02-01T09:30:10.181Z,101
2023-02-01T09:31:11.302Z,101
2023-02-01T09:32:13.642Z,101
2023-02-01T09:33:10.596Z,101
2023-02-01T09:34:10.190Z,101
2023-02-01T09:35:09.800Z,101
2023-02-01T09:36:10.544Z,101
2023-02-01T09:37:09.990Z,101
2023-02-01T09:38:10.550Z,101
2023-02-01T09:39:10.228Z,101
2023-02-01T09:40:10.598Z,101
2023-02-01T09:41:10.421Z,101
2023-02-01T09:42:10.812Z,101
2023-02-01T09:43:10.507Z,101
2023-02-01T09:44:09.978Z,101
2023-02-01T09:45:10.607Z,101
2023-02-01T09:46:10.892Z,101
2023-02-01T09:47:10.428Z,101
2023-02-01T09:48:10.014Z,101
2023-02-01T09:49:10.295Z,101
2023-02-01T09:50:10.007Z,101
2023-02-01T09:51:10.219Z,101
2023-02-01T09:52:09.941Z,101
2023-02-01T09:53:10.528Z,101
2023-02-01T09:54:09.933Z,101
2023-02-01T09:55:10.433Z,101
2023-02-01T09:56:10.049Z,101
2023-02-01T09:57:10.556Z,101
2023-02-01T09:58:10.014Z,101
2023-02-01T09:59:10.654Z,101
2023-02-01T10:00:10.178Z,101
2023-02-01T10:01:10.214Z,101
2023-02-01T10:02:10.602Z,101
2023-02-01T10:03:10.139Z,101
2023-02-01T10:04:10.358Z,101
2023-02-01T10:05:10.059Z,101
2023-02-01T10:06:10.489Z,101
2023-02-01T10:07:09.952Z,108
2023-02-01T10:08:10.583Z,108
2023-02-01T10:09:09.807Z,108
2023-02-01T10:10:10.862Z,108
2023-02-01T10:11:10.081Z,108
2023-02-01T10:12:10.655Z,108
2023-02-01T10:13:10.148Z,108
2023-02-01T10:14:10.706Z,108
2023-02-01T10:15:10.292Z,108
2023-02-01T10:16:11.060Z,108
2023-02-01T10:17:10.462Z,108
2023-02-01T10:18:09.957Z,108
2023-02-01T10:19:10.313Z,108
2023-02-01T10:20:10.261Z,108
2023-02-01T10:21:10.578Z,108
2023-02-01T10:22:10.003Z,108
2023-02-01T10:23:40.962Z,108
2023-02-01T10:24:23.811Z,108
2023-02-01T10:25:10.360Z,108
2023-02-01T10:26:10.127Z,108
2023-02-01T10:27:10.561Z,108
2023-02-01T10:28:10.020Z,108
2023-02-01T10:29:10.762Z,108
2023-02-01T10:30:10.368Z,108
2023-02-01T10:31:11.242Z,108
2023-02-01T10:32:10.328Z,108
2023-02-01T10:33:10.639Z,108
2023-02-01T10:34:10.195Z,108
2023-02-01T10:35:10.549Z,108
2023-02-01T10:36:10.253Z,108
2023-02-01T10:37:10.506Z,108
2023-02-01T10:38:10.132Z,108
2023-02-01T10:39:10.976Z,108
2023-02-01T10:40:10.417Z,108
2023-02-01T10:41:09.929Z,108
2023-02-01T10:42:11.538Z,108
2023-02-01T10:43:09.908Z,108
2023-02-01T10:44:10.673Z,108
2023-02-01T10:45:10.337Z,108
2023-02-01T10:46:10.093Z,108
2023-02-01T10:47:10.447Z,108
2023-02-01T10:48:10.133Z,108
2023-02-01T10:49:10.488Z,108
2023-02-01T10:50:10.132Z,108
2023-02-01T10:51:10.874Z,108
2023-02-01T10:52:10.374Z,108
2023-02-01T10:53:10.793Z,108
2023-02-01T10:54:10.311Z,108
2023-02-01T10:55:09.965Z,108
2023-02-01T10:56:10.516Z,108
2023-02-01T10:57:10.041Z,108
2023-02-01T10:58:10.451Z,108
2023-02-01T10:59:10.110Z,108
2023-02-01T11:00:09.958Z,108
2023-02-01T11:01:10.409Z,108
2023-02-01T11:02:10.236Z,108
2023-02-01T11:03:10.886Z,108
2023-02-01T11:04:10.062Z,108
2023-02-01T11:05:10.577Z,108
2023-02-01T11:06:09.504Z,108
2023-02-01T11:07:10.579Z,104
2023-02-01T11:08:10.492Z,104
2023-02-01T11:09:09.872Z,104
2023-02-01T11:10:10.368Z,104
2023-02-01T11:11:10.285Z,104
2023-02-01T11:12:10.741Z,104
2023-02-01T11:13:10.204Z,104
2023-02-01T11:14:10.594Z,104
2023-02-01T11:15:10.274Z,104
2023-02-01T11:16:11.088Z,104
2023-02-01T11:17:10.312Z,104
2023-02-01T11:18:10.795Z,104
2023-02-01T11:19:10.466Z,104
2023-02-01T11:20:09.953Z,104
2023-02-01T11:21:10.430Z,104
2023-02-01T11:22:10.105Z,104
2023-02-01T11:23:10.809Z,104
2023-02-01T11:24:10.314Z,104
2023-02-01T11:25:10.732Z,104
2023-02-01T11:26:10.366Z,104
2023-02-01T11:27:27.358Z,104
2023-02-01T11:28:10.265Z,104
2023-02-01T11:29:10.785Z,104
2023-02-01T11:30:10.507Z,104
2023-02-01T11:31:10.661Z,104
2023-02-01T11:32:10.449Z,104
2023-02-01T11:33:12.559Z,104
2023-02-01T11:34:10.442Z,104
2023-02-01T11:35:10.013Z,104
2023-02-01T11:36:10.414Z,104
2023-02-01T11:37:09.958Z,104
2023-02-01T11:38:10.466Z,104
2023-02-01T11:39:11.338Z,104
2023-02-01T11:40:10.800Z,104
2023-02-01T11:41:10.244Z,104
2023-02-01T11:42:09.849Z,104
2023-02-01T11:43:10.523Z,104
2023-02-01T11:44:10.039Z,104
2023-02-01T11:45:12.342Z,104
2023-02-01T11:46:10.002Z,104
2023-02-01T11:47:10.527Z,104
2023-02-01T11:48:14.929Z,104
2023-02-01T11:49:10.436Z,104
2023-02-01T11:50:09.985Z,104
2023-02-01T11:51:12.923Z,104
2023-02-01T11:52:09.890Z,104
2023-02-01T11:53:10.668Z,104
2023-02-01T11:54:10.064Z,104
2023-02-01T11:55:10.732Z,104
2023-02-01T11:56:10.276Z,104
2023-02-01T11:57:12.126Z,104
2023-02-01T11:58:10.435Z,104
2023-02-01T11:59:09.903Z,104
2023-02-01T12:00:10.250Z,104
2023-02-01T12:01:10.607Z,104
2023-02-01T12:02:10.378Z,104
2023-02-01T12:03:11.077Z,104
2023-02-01T12:04:10.213Z,104
2023-02-01T12:05:10.813Z,104
2023-02-01T12:06:10.482Z,104
2023-02-01T12:07:09.938Z,103
2023-02-01T12:08:10.422Z,103
2023-02-01T12:09:09.939Z,103
2023-02-01T12:10:10.467Z,103
2023-02-01T12:11:10.176Z,103
2023-02-01T12:12:10.683Z,103
2023-02-01T12:13:10.174Z,103
2023-02-01T12:14:10.594Z,103
2023-02-01T12:15:10.259Z,103
2023-02-01T12:16:11.107Z,103
2023-02-01T12:17:10.522Z,103
2023-02-01T12:18:10.171Z,103
2023-02-01T12:19:10.501Z,103
2023-02-01T12:20:10.003Z,103
2023-02-01T12:21:10.664Z,103
2023-02-01T12:22:10.060Z,103
2023-02-01T12:23:10.787Z,103
2023-02-01T12:24:10.181Z,103
2023-02-01T12:25:10.717Z,103
2023-02-01T12:26:10.409Z,103
2023-02-01T12:27:10.866Z,103
2023-02-01T12:28:10.351Z,103
2023-02-01T12:29:09.853Z,103
2023-02-01T12:30:10.345Z,103
2023-02-01T12:31:10.117Z,103
2023-02-01T12:32:10.881Z,103
2023-02-01T12:33:10.247Z,103
2023-02-01T12:34:10.963Z,103
2023-02-01T12:35:10.238Z,103
2023-02-01T12:36:10.706Z,103
2023-02-01T12:37:11.993Z,103
2023-02-01T12:38:10.236Z,103
2023-02-01T12:39:10.259Z,103
2023-02-01T12:40:10.071Z,103
2023-02-01T12:41:10.465Z,103
2023-02-01T12:42:10.129Z,103
2023-02-01T12:43:12.741Z,103
2023-02-01T12:44:10.332Z,103
2023-02-01T12:45:09.964Z,103
2023-02-01T12:46:10.735Z,103
2023-02-01T12:47:09.991Z,103
2023-02-01T12:48:10.600Z,103
2023-02-01T12:49:10.205Z,103
2023-02-01T12:50:10.760Z,103
2023-02-01T12:51:10.455Z,103
2023-02-01T12:52:09.650Z,103
2023-02-01T12:53:10.293Z,103
2023-02-01T12:54:11.008Z,103
2023-02-01T12:55:10.359Z,103
2023-02-01T12:56:09.904Z,103
2023-02-01T12:57:10.528Z,103
2023-02-01T12:58:10.007Z,103
2023-02-01T12:59:10.687Z,103
2023-02-01T13:00:10.222Z,103
2023-02-01T13:01:10.716Z,103
2023-02-01T13:02:09.992Z,103
2023-02-01T13:03:10.390Z,103
2023-02-01T13:04:10.387Z,103
2023-02-01T13:05:10.781Z,103
2023-02-01T13:06:10.245Z,103
2023-02-01T13:07:10.728Z,106
2023-02-01T13:08:10.285Z,106
2023-02-01T13:09:10.753Z,106
2023-02-01T13:10:10.248Z,106
2023-02-01T13:11:10.924Z,106
2023-02-01T13:12:10.438Z,106
2023-02-01T13:13:11.898Z,106
2023-02-01T13:14:10.618Z,106
2023-02-01T13:15:10.015Z,106
2023-02-01T13:16:09.852Z,106
2023-02-01T13:17:10.734Z,106
2023-02-01T13:18:09.939Z,106
2023-02-01T13:19:10.364Z,106
2023-02-01T13:20:09.913Z,106
2023-02-01T13:21:10.512Z,106
2023-02-01T13:22:10.041Z,106
2023-02-01T13:23:10.588Z,106
2023-02-01T13:24:10.090Z,106
2023-02-01T13:25:10.283Z,106
2023-02-01T13:26:10.056Z,106
2023-02-01T13:27:10.755Z,106
2023-02-01T13:28:10.219Z,106
2023-02-01T13:29:10.767Z,106
2023-02-01T13:30:10.419Z,106
2023-02-01T13:31:10.574Z,106
2023-02-01T13:32:10.522Z,106
2023-02-01T13:34:03.227Z,106
2023-02-01T13:35:10.444Z,106
2023-02-01T13:36:11.587Z,106
2023-02-01T13:37:10.431Z,106
2023-02-01T13:38:10.843Z,106
2023-02-01T13:39:10.267Z,106
2023-02-01T13:40:09.774Z,106
2023-02-01T13:41:10.486Z,106
2023-02-01T13:42:09.989Z,106
2023-02-01T13:43:10.542Z,106
2023-02-01T13:44:09.953Z,106
2023-02-01T13:45:10.436Z,106
2023-02-01T13:46:10.950Z,106
2023-02-01T13:47:10.361Z,106
2023-02-01T13:48:10.756Z,106
2023-02-01T13:49:10.222Z,106
2023-02-01T13:50:10.827Z,106
2023-02-01T13:51:10.301Z,106
2023-02-01T13:52:10.632Z,106